sensor_id;sensor_type;location;lat;lon;timestamp;temperature;humidity
64493;DHT22;50868;24.150;-110.320;2023-08-30T00:02:13;37.30;99.90
64493;DHT22;50868;24.150;-110.320;2023-08-30T00:04:42;37.40;99.90
64493;DHT22;50868;24.150;-110.320;2023-08-30T00:07:09;37.50;99.90
64493;DHT22;50868;24.150;-110.320;2023-08-30T00:09:37;37.30;99.90
64493;DHT22;50868;24.150;-110.320;2023-08-30T00:12:04;37.40;99.90
64493;DHT22;50868;24.150;-110.320;2023-08-30T00:14:31;37.30;99.90
64493;DHT22;50868;24.150;-110.320;2023-08-30T00:16:59;37.50;99.90
64493;DHT22;50868;24.150;-110.320;2023-08-30T00:19:26;37.60;99.90
64493;DHT22;50868;24.150;-110.320;2023-08-30T00:21:53;37.50;99.90
64493;DHT22;50868;24.150;-110.320;2023-08-30T00:24:21;37.50;99.90
64493;DHT22;50868;24.150;-110.320;2023-08-30T00:26:48;37.50;99.90
64493;DHT22;50868;24.150;-110.320;2023-08-30T00:29:15;37.60;99.90
64493;DHT22;50868;24.150;-110.320;2023-08-30T00:31:42;37.50;99.90
64493;DHT22;50868;24.150;-110.320;2023-08-30T00:34:09;37.30;99.90
64493;DHT22;50868;24.150;-110.320;2023-08-30T00:36:36;37.10;99.90
64493;DHT22;50868;24.150;-110.320;2023-08-30T00:39:03;36.90;99.90
64493;DHT22;50868;24.150;-110.320;2023-08-30T00:41:31;36.70;99.90
64493;DHT22;50868;24.150;-110.320;2023-08-30T00:43:58;36.60;99.90
64493;DHT22;50868;24.150;-110.320;2023-08-30T00:46:25;36.40;99.90
64493;DHT22;50868;24.150;-110.320;2023-08-30T00:48:52;36.20;99.90
64493;DHT22;50868;24.150;-110.320;2023-08-30T00:51:20;35.90;99.90
64493;DHT22;50868;24.150;-110.320;2023-08-30T00:53:48;35.80;99.90
64493;DHT22;50868;24.150;-110.320;2023-08-30T00:56:16;35.70;99.90
64493;DHT22;50868;24.150;-110.320;2023-08-30T00:58:44;35.50;99.90
64493;DHT22;50868;24.150;-110.320;2023-08-30T01:01:11;35.30;99.90
64493;DHT22;50868;24.150;-110.320;2023-08-30T01:03:40;35.20;99.90
64493;DHT22;50868;24.150;-110.320;2023-08-30T01:06:07;35.00;99.90
64493;DHT22;50868;24.150;-110.320;2023-08-30T01:08:35;34.90;99.90
64493;DHT22;50868;24.150;-110.320;2023-08-30T01:11:15;35.00;99.90
64493;DHT22;50868;24.150;-110.320;2023-08-30T01:14:04;34.80;99.90
64493;DHT22;50868;24.150;-110.320;2023-08-30T01:16:36;34.70;99.90
64493;DHT22;50868;24.150;-110.320;2023-08-30T01:27:36;34.40;99.90
64493;DHT22;50868;24.150;-110.320;2023-08-30T01:30:06;34.30;99.90
64493;DHT22;50868;24.150;-110.320;2023-08-30T01:32:35;34.30;99.90
64493;DHT22;50868;24.150;-110.320;2023-08-30T01:35:04;34.20;99.90
64493;DHT22;50868;24.150;-110.320;2023-08-30T01:37:32;34.20;99.90
64493;DHT22;50868;24.150;-110.320;2023-08-30T01:40:01;34.10;99.90
64493;DHT22;50868;24.150;-110.320;2023-08-30T01:42:31;34.00;99.90
64493;DHT22;50868;24.150;-110.320;2023-08-30T01:44:59;34.10;99.90
64493;DHT22;50868;24.150;-110.320;2023-08-30T01:47:28;34.00;99.90
64493;DHT22;50868;24.150;-110.320;2023-08-30T01:49:57;34.00;99.90
64493;DHT22;50868;24.150;-110.320;2023-08-30T01:52:24;33.90;99.90
64493;DHT22;50868;24.150;-110.320;2023-08-30T01:54:52;33.90;99.90
64493;DHT22;50868;24.150;-110.320;2023-08-30T01:57:20;33.70;99.90
64493;DHT22;50868;24.150;-110.320;2023-08-30T01:59:47;33.70;99.90
64493;DHT22;50868;24.150;-110.320;2023-08-30T02:02:14;33.60;99.90
64493;DHT22;50868;24.150;-110.320;2023-08-30T02:04:41;33.60;99.90
64493;DHT22;50868;24.150;-110.320;2023-08-30T02:07:16;33.50;99.90
64493;DHT22;50868;24.150;-110.320;2023-08-30T02:10:09;33.30;99.90
64493;DHT22;50868;24.150;-110.320;2023-08-30T02:12:55;33.40;99.90
64493;DHT22;50868;24.150;-110.320;2023-08-30T02:15:25;33.40;99.90
64493;DHT22;50868;24.150;-110.320;2023-08-30T02:17:54;33.30;99.90
64493;DHT22;50868;24.150;-110.320;2023-08-30T02:20:22;33.20;99.90
64493;DHT22;50868;24.150;-110.320;2023-08-30T02:22:50;33.10;99.90
64493;DHT22;50868;24.150;-110.320;2023-08-30T02:25:17;33.00;99.90
64493;DHT22;50868;24.150;-110.320;2023-08-30T02:27:44;32.90;99.90
64493;DHT22;50868;24.150;-110.320;2023-08-30T02:30:11;33.10;99.90
64493;DHT22;50868;24.150;-110.320;2023-08-30T02:32:39;33.10;99.90
64493;DHT22;50868;24.150;-110.320;2023-08-30T02:35:06;33.10;99.90
64493;DHT22;50868;24.150;-110.320;2023-08-30T02:37:33;33.10;99.90
64493;DHT22;50868;24.150;-110.320;2023-08-30T02:40:01;33.10;99.90
64493;DHT22;50868;24.150;-110.320;2023-08-30T02:42:29;33.10;99.90
64493;DHT22;50868;24.150;-110.320;2023-08-30T02:44:56;33.20;99.90
64493;DHT22;50868;24.150;-110.320;2023-08-30T02:47:23;33.00;99.90
64493;DHT22;50868;24.150;-110.320;2023-08-30T02:49:50;32.90;99.90
64493;DHT22;50868;24.150;-110.320;2023-08-30T02:52:18;32.90;99.90
64493;DHT22;50868;24.150;-110.320;2023-08-30T02:54:45;32.90;99.90
64493;DHT22;50868;24.150;-110.320;2023-08-30T02:57:12;32.80;99.90
64493;DHT22;50868;24.150;-110.320;2023-08-30T02:59:39;32.70;99.90
64493;DHT22;50868;24.150;-110.320;2023-08-30T03:02:06;32.70;99.90
64493;DHT22;50868;24.150;-110.320;2023-08-30T03:04:33;32.70;99.90
64493;DHT22;50868;24.150;-110.320;2023-08-30T03:07:01;32.80;99.90
64493;DHT22;50868;24.150;-110.320;2023-08-30T03:09:28;32.80;99.90
64493;DHT22;50868;24.150;-110.320;2023-08-30T03:11:55;32.70;99.90
64493;DHT22;50868;24.150;-110.320;2023-08-30T03:14:22;32.70;99.90
64493;DHT22;50868;24.150;-110.320;2023-08-30T03:16:49;32.70;99.90
64493;DHT22;50868;24.150;-110.320;2023-08-30T03:19:17;32.80;99.90
64493;DHT22;50868;24.150;-110.320;2023-08-30T03:21:44;32.70;99.90
64493;DHT22;50868;24.150;-110.320;2023-08-30T03:24:11;32.70;99.90
64493;DHT22;50868;24.150;-110.320;2023-08-30T03:26:42;32.50;99.90
64493;DHT22;50868;24.150;-110.320;2023-08-30T03:29:09;32.40;99.90
64493;DHT22;50868;24.150;-110.320;2023-08-30T03:31:39;32.40;99.90
64493;DHT22;50868;24.150;-110.320;2023-08-30T03:34:06;32.40;99.90
64493;DHT22;50868;24.150;-110.320;2023-08-30T03:36:33;32.50;99.90
64493;DHT22;50868;24.150;-110.320;2023-08-30T03:39:01;32.50;99.90
64493;DHT22;50868;24.150;-110.320;2023-08-30T03:41:29;32.50;99.90
64493;DHT22;50868;24.150;-110.320;2023-08-30T03:43:56;32.50;99.90
64493;DHT22;50868;24.150;-110.320;2023-08-30T03:46:24;32.40;99.90
64493;DHT22;50868;24.150;-110.320;2023-08-30T03:48:51;32.30;99.90
64493;DHT22;50868;24.150;-110.320;2023-08-30T03:51:18;32.40;99.90
64493;DHT22;50868;24.150;-110.320;2023-08-30T03:53:45;32.30;99.90
64493;DHT22;50868;24.150;-110.320;2023-08-30T03:56:12;32.30;99.90
64493;DHT22;50868;24.150;-110.320;2023-08-30T03:58:40;32.30;99.90
64493;DHT22;50868;24.150;-110.320;2023-08-30T04:01:07;32.30;99.90
64493;DHT22;50868;24.150;-110.320;2023-08-30T04:03:34;32.30;99.90
64493;DHT22;50868;24.150;-110.320;2023-08-30T04:06:01;32.20;99.90
64493;DHT22;50868;24.150;-110.320;2023-08-30T04:08:28;32.10;99.90
64493;DHT22;50868;24.150;-110.320;2023-08-30T04:10:55;32.20;99.90
64493;DHT22;50868;24.150;-110.320;2023-08-30T04:13:22;32.20;99.90
64493;DHT22;50868;24.150;-110.320;2023-08-30T04:15:49;32.10;99.90
64493;DHT22;50868;24.150;-110.320;2023-08-30T04:18:18;32.10;99.90
64493;DHT22;50868;24.150;-110.320;2023-08-30T04:20:46;32.10;99.90
64493;DHT22;50868;24.150;-110.320;2023-08-30T04:23:13;32.10;99.90
64493;DHT22;50868;24.150;-110.320;2023-08-30T04:25:41;32.10;99.90
64493;DHT22;50868;24.150;-110.320;2023-08-30T04:28:08;32.10;99.90
64493;DHT22;50868;24.150;-110.320;2023-08-30T04:30:36;32.10;99.90
64493;DHT22;50868;24.150;-110.320;2023-08-30T04:33:05;32.00;99.90
64493;DHT22;50868;24.150;-110.320;2023-08-30T04:35:32;32.00;99.90
64493;DHT22;50868;24.150;-110.320;2023-08-30T04:38:00;32.00;99.90
64493;DHT22;50868;24.150;-110.320;2023-08-30T04:40:28;32.10;99.90
64493;DHT22;50868;24.150;-110.320;2023-08-30T04:42:58;32.00;99.90
64493;DHT22;50868;24.150;-110.320;2023-08-30T04:45:25;32.00;99.90
64493;DHT22;50868;24.150;-110.320;2023-08-30T04:47:52;31.80;99.90
64493;DHT22;50868;24.150;-110.320;2023-08-30T04:50:19;31.80;99.90
64493;DHT22;50868;24.150;-110.320;2023-08-30T04:52:46;31.80;99.90
64493;DHT22;50868;24.150;-110.320;2023-08-30T04:55:13;31.80;99.90
64493;DHT22;50868;24.150;-110.320;2023-08-30T04:57:40;31.80;99.90
64493;DHT22;50868;24.150;-110.320;2023-08-30T05:00:13;31.80;99.90
64493;DHT22;50868;24.150;-110.320;2023-08-30T05:02:40;31.80;99.90
64493;DHT22;50868;24.150;-110.320;2023-08-30T05:05:10;31.90;99.90
64493;DHT22;50868;24.150;-110.320;2023-08-30T05:07:37;31.90;99.90
64493;DHT22;50868;24.150;-110.320;2023-08-30T05:10:05;31.80;99.90
64493;DHT22;50868;24.150;-110.320;2023-08-30T05:12:35;31.80;99.90
64493;DHT22;50868;24.150;-110.320;2023-08-30T05:15:03;31.80;99.90
64493;DHT22;50868;24.150;-110.320;2023-08-30T05:17:33;31.70;99.90
64493;DHT22;50868;24.150;-110.320;2023-08-30T05:20:00;31.60;99.90
64493;DHT22;50868;24.150;-110.320;2023-08-30T05:22:27;31.70;99.90
64493;DHT22;50868;24.150;-110.320;2023-08-30T05:24:54;31.60;99.90
64493;DHT22;50868;24.150;-110.320;2023-08-30T05:27:21;31.60;99.90
64493;DHT22;50868;24.150;-110.320;2023-08-30T05:29:48;31.60;99.90
64493;DHT22;50868;24.150;-110.320;2023-08-30T05:32:15;31.70;99.90
64493;DHT22;50868;24.150;-110.320;2023-08-30T05:34:42;31.60;99.90
64493;DHT22;50868;24.150;-110.320;2023-08-30T05:37:09;31.60;99.90
64493;DHT22;50868;24.150;-110.320;2023-08-30T05:39:36;31.50;99.90
64493;DHT22;50868;24.150;-110.320;2023-08-30T05:42:04;31.60;99.90
64493;DHT22;50868;24.150;-110.320;2023-08-30T05:44:31;31.60;99.90
64493;DHT22;50868;24.150;-110.320;2023-08-30T05:46:58;31.50;99.90
64493;DHT22;50868;24.150;-110.320;2023-08-30T05:49:26;31.50;99.90
64493;DHT22;50868;24.150;-110.320;2023-08-30T05:51:53;31.40;99.90
64493;DHT22;50868;24.150;-110.320;2023-08-30T05:54:20;31.40;99.90
64493;DHT22;50868;24.150;-110.320;2023-08-30T05:56:48;31.50;99.90
64493;DHT22;50868;24.150;-110.320;2023-08-30T05:59:15;31.20;99.90
64493;DHT22;50868;24.150;-110.320;2023-08-30T06:01:42;31.00;99.90
64493;DHT22;50868;24.150;-110.320;2023-08-30T06:07:13;30.80;99.90
64493;DHT22;50868;24.150;-110.320;2023-08-30T06:09:40;30.60;99.90
64493;DHT22;50868;24.150;-110.320;2023-08-30T06:12:07;30.50;99.90
64493;DHT22;50868;24.150;-110.320;2023-08-30T06:14:35;30.50;99.90
64493;DHT22;50868;24.150;-110.320;2023-08-30T06:17:02;30.50;99.90
64493;DHT22;50868;24.150;-110.320;2023-08-30T06:19:29;30.50;99.90
64493;DHT22;50868;24.150;-110.320;2023-08-30T06:21:56;30.50;99.90
64493;DHT22;50868;24.150;-110.320;2023-08-30T06:24:23;30.50;99.90
64493;DHT22;50868;24.150;-110.320;2023-08-30T06:26:50;30.50;99.90
64493;DHT22;50868;24.150;-110.320;2023-08-30T06:29:17;30.50;99.90
64493;DHT22;50868;24.150;-110.320;2023-08-30T06:31:44;30.50;99.90
64493;DHT22;50868;24.150;-110.320;2023-08-30T06:34:12;30.50;99.90
64493;DHT22;50868;24.150;-110.320;2023-08-30T06:36:39;30.40;99.90
64493;DHT22;50868;24.150;-110.320;2023-08-30T06:39:06;30.40;99.90
64493;DHT22;50868;24.150;-110.320;2023-08-30T06:41:33;30.40;99.90
64493;DHT22;50868;24.150;-110.320;2023-08-30T06:44:00;30.50;99.90
64493;DHT22;50868;24.150;-110.320;2023-08-30T06:46:27;30.50;99.90
64493;DHT22;50868;24.150;-110.320;2023-08-30T06:48:54;30.50;99.90
64493;DHT22;50868;24.150;-110.320;2023-08-30T06:51:21;30.50;99.90
64493;DHT22;50868;24.150;-110.320;2023-08-30T06:53:48;30.40;99.90
64493;DHT22;50868;24.150;-110.320;2023-08-30T06:56:16;30.50;99.90
64493;DHT22;50868;24.150;-110.320;2023-08-30T06:58:43;30.50;99.90
64493;DHT22;50868;24.150;-110.320;2023-08-30T07:01:10;30.50;99.90
64493;DHT22;50868;24.150;-110.320;2023-08-30T07:03:37;30.60;99.90
64493;DHT22;50868;24.150;-110.320;2023-08-30T07:06:06;30.70;99.90
64493;DHT22;50868;24.150;-110.320;2023-08-30T07:08:33;30.60;99.90
64493;DHT22;50868;24.150;-110.320;2023-08-30T07:11:01;30.60;99.90
64493;DHT22;50868;24.150;-110.320;2023-08-30T07:13:28;30.60;99.90
64493;DHT22;50868;24.150;-110.320;2023-08-30T07:15:55;30.60;99.90
64493;DHT22;50868;24.150;-110.320;2023-08-30T07:18:23;30.60;99.90
64493;DHT22;50868;24.150;-110.320;2023-08-30T07:20:50;30.70;99.90
64493;DHT22;50868;24.150;-110.320;2023-08-30T07:23:17;30.60;99.90
64493;DHT22;50868;24.150;-110.320;2023-08-30T07:25:44;30.60;99.90
64493;DHT22;50868;24.150;-110.320;2023-08-30T07:28:11;30.70;99.90
64493;DHT22;50868;24.150;-110.320;2023-08-30T07:30:38;30.80;99.90
64493;DHT22;50868;24.150;-110.320;2023-08-30T07:33:05;30.70;99.90
64493;DHT22;50868;24.150;-110.320;2023-08-30T07:35:33;30.60;99.90
64493;DHT22;50868;24.150;-110.320;2023-08-30T07:38:00;30.50;99.90
64493;DHT22;50868;24.150;-110.320;2023-08-30T07:40:27;30.50;99.90
64493;DHT22;50868;24.150;-110.320;2023-08-30T07:42:55;30.50;99.90
64493;DHT22;50868;24.150;-110.320;2023-08-30T07:45:22;30.50;99.90
64493;DHT22;50868;24.150;-110.320;2023-08-30T07:47:49;30.50;99.90
64493;DHT22;50868;24.150;-110.320;2023-08-30T07:50:16;30.50;99.90
64493;DHT22;50868;24.150;-110.320;2023-08-30T07:52:44;30.50;99.90
64493;DHT22;50868;24.150;-110.320;2023-08-30T07:55:12;30.60;99.90
64493;DHT22;50868;24.150;-110.320;2023-08-30T07:57:39;30.60;99.90
64493;DHT22;50868;24.150;-110.320;2023-08-30T08:00:07;30.60;99.90
64493;DHT22;50868;24.150;-110.320;2023-08-30T08:02:35;30.60;99.90
64493;DHT22;50868;24.150;-110.320;2023-08-30T08:05:02;30.50;99.90
64493;DHT22;50868;24.150;-110.320;2023-08-30T08:07:29;30.50;99.90
64493;DHT22;50868;24.150;-110.320;2023-08-30T08:09:57;30.60;99.90
64493;DHT22;50868;24.150;-110.320;2023-08-30T08:12:25;30.60;99.90
64493;DHT22;50868;24.150;-110.320;2023-08-30T08:14:53;30.60;99.90
64493;DHT22;50868;24.150;-110.320;2023-08-30T08:17:20;30.60;99.90
64493;DHT22;50868;24.150;-110.320;2023-08-30T08:19:47;30.70;99.90
64493;DHT22;50868;24.150;-110.320;2023-08-30T08:22:15;30.70;99.90
64493;DHT22;50868;24.150;-110.320;2023-08-30T08:24:42;30.70;99.90
64493;DHT22;50868;24.150;-110.320;2023-08-30T08:27:12;30.60;99.90
64493;DHT22;50868;24.150;-110.320;2023-08-30T08:29:40;30.60;99.90
64493;DHT22;50868;24.150;-110.320;2023-08-30T08:32:07;30.70;99.90
64493;DHT22;50868;24.150;-110.320;2023-08-30T08:34:35;30.70;99.90
64493;DHT22;50868;24.150;-110.320;2023-08-30T08:37:02;30.70;99.90
64493;DHT22;50868;24.150;-110.320;2023-08-30T08:39:30;30.70;99.90
64493;DHT22;50868;24.150;-110.320;2023-08-30T08:41:59;30.70;99.90
64493;DHT22;50868;24.150;-110.320;2023-08-30T08:44:28;30.70;99.90
64493;DHT22;50868;24.150;-110.320;2023-08-30T08:46:59;30.70;99.90
64493;DHT22;50868;24.150;-110.320;2023-08-30T08:49:28;30.80;99.90
64493;DHT22;50868;24.150;-110.320;2023-08-30T08:51:57;30.90;99.90
64493;DHT22;50868;24.150;-110.320;2023-08-30T08:54:26;30.90;99.90
64493;DHT22;50868;24.150;-110.320;2023-08-30T08:56:53;30.90;99.90
64493;DHT22;50868;24.150;-110.320;2023-08-30T08:59:21;30.90;99.90
64493;DHT22;50868;24.150;-110.320;2023-08-30T09:01:49;30.90;99.90
64493;DHT22;50868;24.150;-110.320;2023-08-30T09:04:17;31.00;99.90
64493;DHT22;50868;24.150;-110.320;2023-08-30T09:06:45;31.00;99.90
64493;DHT22;50868;24.150;-110.320;2023-08-30T09:09:12;31.00;99.90
64493;DHT22;50868;24.150;-110.320;2023-08-30T09:11:39;31.00;99.90
64493;DHT22;50868;24.150;-110.320;2023-08-30T09:14:08;31.00;99.90
64493;DHT22;50868;24.150;-110.320;2023-08-30T09:16:35;31.10;99.90
64493;DHT22;50868;24.150;-110.320;2023-08-30T09:19:04;30.90;99.90
64493;DHT22;50868;24.150;-110.320;2023-08-30T09:21:31;30.90;99.90
64493;DHT22;50868;24.150;-110.320;2023-08-30T09:24:03;30.90;99.90
64493;DHT22;50868;24.150;-110.320;2023-08-30T09:26:31;30.90;99.90
64493;DHT22;50868;24.150;-110.320;2023-08-30T09:29:03;30.90;99.90
64493;DHT22;50868;24.150;-110.320;2023-08-30T09:31:38;31.00;99.90
64493;DHT22;50868;24.150;-110.320;2023-08-30T09:34:07;31.00;99.90
64493;DHT22;50868;24.150;-110.320;2023-08-30T09:36:39;30.90;99.90
64493;DHT22;50868;24.150;-110.320;2023-08-30T09:39:12;30.90;99.90
64493;DHT22;50868;24.150;-110.320;2023-08-30T09:41:44;30.90;99.90
64493;DHT22;50868;24.150;-110.320;2023-08-30T09:44:16;30.90;99.90
64493;DHT22;50868;24.150;-110.320;2023-08-30T09:46:54;30.90;99.90
64493;DHT22;50868;24.150;-110.320;2023-08-30T09:49:25;30.80;99.90
64493;DHT22;50868;24.150;-110.320;2023-08-30T09:51:54;30.90;99.90
64493;DHT22;50868;24.150;-110.320;2023-08-30T09:54:23;30.80;99.90
64493;DHT22;50868;24.150;-110.320;2023-08-30T09:56:51;30.90;99.90
64493;DHT22;50868;24.150;-110.320;2023-08-30T09:59:23;31.00;99.90
64493;DHT22;50868;24.150;-110.320;2023-08-30T10:01:51;31.00;99.90
64493;DHT22;50868;24.150;-110.320;2023-08-30T10:04:20;30.90;99.90
64493;DHT22;50868;24.150;-110.320;2023-08-30T10:06:48;30.90;99.90
64493;DHT22;50868;24.150;-110.320;2023-08-30T10:09:16;31.00;99.90
64493;DHT22;50868;24.150;-110.320;2023-08-30T10:11:46;31.10;99.90
64493;DHT22;50868;24.150;-110.320;2023-08-30T10:14:14;31.00;99.90
64493;DHT22;50868;24.150;-110.320;2023-08-30T10:16:47;31.10;99.90
64493;DHT22;50868;24.150;-110.320;2023-08-30T10:19:25;31.10;99.90
64493;DHT22;50868;24.150;-110.320;2023-08-30T10:22:04;31.10;99.90
64493;DHT22;50868;24.150;-110.320;2023-08-30T10:25:06;31.10;99.90
64493;DHT22;50868;24.150;-110.320;2023-08-30T10:27:35;31.10;99.90
64493;DHT22;50868;24.150;-110.320;2023-08-30T10:30:06;31.10;99.90
64493;DHT22;50868;24.150;-110.320;2023-08-30T10:32:40;31.10;99.90
64493;DHT22;50868;24.150;-110.320;2023-08-30T10:35:18;31.10;99.90
64493;DHT22;50868;24.150;-110.320;2023-08-30T10:38:02;31.10;99.90
64493;DHT22;50868;24.150;-110.320;2023-08-30T10:40:29;31.10;99.90
64493;DHT22;50868;24.150;-110.320;2023-08-30T10:43:03;31.10;99.90
64493;DHT22;50868;24.150;-110.320;2023-08-30T10:45:30;31.10;99.90
64493;DHT22;50868;24.150;-110.320;2023-08-30T10:47:58;31.00;99.90
64493;DHT22;50868;24.150;-110.320;2023-08-30T10:50:33;30.80;99.90
64493;DHT22;50868;24.150;-110.320;2023-08-30T10:53:00;30.60;99.90
64493;DHT22;50868;24.150;-110.320;2023-08-30T10:55:28;30.50;99.90
64493;DHT22;50868;24.150;-110.320;2023-08-30T10:58:00;30.50;99.90
64493;DHT22;50868;24.150;-110.320;2023-08-30T11:00:30;30.50;99.90
64493;DHT22;50868;24.150;-110.320;2023-08-30T11:02:58;30.20;99.90
64493;DHT22;50868;24.150;-110.320;2023-08-30T11:05:26;30.10;99.90
64493;DHT22;50868;24.150;-110.320;2023-08-30T11:07:54;30.10;99.90
64493;DHT22;50868;24.150;-110.320;2023-08-30T11:10:21;30.00;99.90
64493;DHT22;50868;24.150;-110.320;2023-08-30T11:12:49;29.90;99.90
64493;DHT22;50868;24.150;-110.320;2023-08-30T11:15:16;30.00;99.90
64493;DHT22;50868;24.150;-110.320;2023-08-30T11:17:44;30.10;99.90
64493;DHT22;50868;24.150;-110.320;2023-08-30T11:20:13;30.00;99.90
64493;DHT22;50868;24.150;-110.320;2023-08-30T11:22:45;29.80;99.90
64493;DHT22;50868;24.150;-110.320;2023-08-30T11:25:14;29.80;99.90
64493;DHT22;50868;24.150;-110.320;2023-08-30T11:27:42;29.70;99.90
64493;DHT22;50868;24.150;-110.320;2023-08-30T11:30:10;29.70;99.90
64493;DHT22;50868;24.150;-110.320;2023-08-30T11:32:39;29.80;99.90
64493;DHT22;50868;24.150;-110.320;2023-08-30T11:35:09;29.80;99.90
64493;DHT22;50868;24.150;-110.320;2023-08-30T11:37:36;29.60;99.90
64493;DHT22;50868;24.150;-110.320;2023-08-30T11:40:04;29.60;99.90
64493;DHT22;50868;24.150;-110.320;2023-08-30T11:42:33;29.70;99.90
64493;DHT22;50868;24.150;-110.320;2023-08-30T11:45:01;29.70;99.90
64493;DHT22;50868;24.150;-110.320;2023-08-30T11:47:31;29.70;99.90
64493;DHT22;50868;24.150;-110.320;2023-08-30T11:49:58;29.80;99.90
64493;DHT22;50868;24.150;-110.320;2023-08-30T11:52:26;29.80;99.90
64493;DHT22;50868;24.150;-110.320;2023-08-30T11:54:55;29.90;99.90
64493;DHT22;50868;24.150;-110.320;2023-08-30T11:57:22;29.90;99.90
64493;DHT22;50868;24.150;-110.320;2023-08-30T11:59:49;29.90;99.90
64493;DHT22;50868;24.150;-110.320;2023-08-30T12:02:17;30.00;99.90
64493;DHT22;50868;24.150;-110.320;2023-08-30T12:04:46;29.90;99.90
64493;DHT22;50868;24.150;-110.320;2023-08-30T12:07:26;30.00;99.90
64493;DHT22;50868;24.150;-110.320;2023-08-30T12:10:04;30.00;99.90
64493;DHT22;50868;24.150;-110.320;2023-08-30T12:12:32;30.00;99.90
64493;DHT22;50868;24.150;-110.320;2023-08-30T12:14:59;30.00;99.90
64493;DHT22;50868;24.150;-110.320;2023-08-30T12:17:26;30.00;99.90
64493;DHT22;50868;24.150;-110.320;2023-08-30T12:19:59;30.00;99.90
64493;DHT22;50868;24.150;-110.320;2023-08-30T12:22:42;30.00;99.90
64493;DHT22;50868;24.150;-110.320;2023-08-30T12:25:22;30.10;99.90
64493;DHT22;50868;24.150;-110.320;2023-08-30T12:27:53;30.00;99.90
64493;DHT22;50868;24.150;-110.320;2023-08-30T12:30:20;30.00;99.90
64493;DHT22;50868;24.150;-110.320;2023-08-30T12:32:48;30.00;99.90
64493;DHT22;50868;24.150;-110.320;2023-08-30T12:35:15;30.00;99.90
64493;DHT22;50868;24.150;-110.320;2023-08-30T12:37:43;30.00;99.90
64493;DHT22;50868;24.150;-110.320;2023-08-30T12:40:11;30.10;99.90
64493;DHT22;50868;24.150;-110.320;2023-08-30T12:42:38;30.20;99.90
64493;DHT22;50868;24.150;-110.320;2023-08-30T12:45:06;30.20;99.90
64493;DHT22;50868;24.150;-110.320;2023-08-30T12:47:34;30.20;99.90
64493;DHT22;50868;24.150;-110.320;2023-08-30T12:50:01;30.20;99.90
64493;DHT22;50868;24.150;-110.320;2023-08-30T12:52:28;30.30;99.90
64493;DHT22;50868;24.150;-110.320;2023-08-30T12:54:55;30.10;99.90
64493;DHT22;50868;24.150;-110.320;2023-08-30T12:57:22;30.00;99.90
64493;DHT22;50868;24.150;-110.320;2023-08-30T12:59:49;30.00;99.90
64493;DHT22;50868;24.150;-110.320;2023-08-30T13:02:16;29.90;99.90
64493;DHT22;50868;24.150;-110.320;2023-08-30T13:04:43;30.00;99.90
64493;DHT22;50868;24.150;-110.320;2023-08-30T13:07:10;30.10;99.90
64493;DHT22;50868;24.150;-110.320;2023-08-30T13:09:37;30.10;99.90
64493;DHT22;50868;24.150;-110.320;2023-08-30T13:12:05;30.10;99.90
64493;DHT22;50868;24.150;-110.320;2023-08-30T13:14:32;30.00;99.90
64493;DHT22;50868;24.150;-110.320;2023-08-30T13:16:59;30.00;99.90
64493;DHT22;50868;24.150;-110.320;2023-08-30T13:19:26;30.00;99.90
64493;DHT22;50868;24.150;-110.320;2023-08-30T13:21:53;30.00;99.90
64493;DHT22;50868;24.150;-110.320;2023-08-30T13:24:21;30.10;99.90
64493;DHT22;50868;24.150;-110.320;2023-08-30T13:26:48;30.10;99.90
64493;DHT22;50868;24.150;-110.320;2023-08-30T13:29:15;30.20;99.90
64493;DHT22;50868;24.150;-110.320;2023-08-30T13:31:42;30.10;99.90
64493;DHT22;50868;24.150;-110.320;2023-08-30T13:34:09;30.00;99.90
64493;DHT22;50868;24.150;-110.320;2023-08-30T13:36:36;30.10;99.90
64493;DHT22;50868;24.150;-110.320;2023-08-30T13:39:05;30.10;99.90
64493;DHT22;50868;24.150;-110.320;2023-08-30T13:41:32;30.10;99.90
64493;DHT22;50868;24.150;-110.320;2023-08-30T13:44:00;30.10;99.90
64493;DHT22;50868;24.150;-110.320;2023-08-30T13:46:27;30.20;99.90
64493;DHT22;50868;24.150;-110.320;2023-08-30T13:48:54;30.30;99.90
64493;DHT22;50868;24.150;-110.320;2023-08-30T13:51:25;30.30;99.90
64493;DHT22;50868;24.150;-110.320;2023-08-30T13:53:53;30.30;99.90
64493;DHT22;50868;24.150;-110.320;2023-08-30T13:56:20;30.30;99.90
64493;DHT22;50868;24.150;-110.320;2023-08-30T13:58:47;30.30;99.90
64493;DHT22;50868;24.150;-110.320;2023-08-30T14:01:15;30.30;99.90
64493;DHT22;50868;24.150;-110.320;2023-08-30T14:03:43;30.30;99.90
64493;DHT22;50868;24.150;-110.320;2023-08-30T14:06:10;30.40;99.90
64493;DHT22;50868;24.150;-110.320;2023-08-30T14:08:38;30.50;99.90
64493;DHT22;50868;24.150;-110.320;2023-08-30T14:11:05;30.70;99.90
64493;DHT22;50868;24.150;-110.320;2023-08-30T14:13:32;30.80;99.90
64493;DHT22;50868;24.150;-110.320;2023-08-30T14:16:03;30.80;99.90
64493;DHT22;50868;24.150;-110.320;2023-08-30T14:18:30;30.80;99.90
64493;DHT22;50868;24.150;-110.320;2023-08-30T14:20:59;31.10;99.90
64493;DHT22;50868;24.150;-110.320;2023-08-30T14:23:27;31.10;99.90
64493;DHT22;50868;24.150;-110.320;2023-08-30T14:26:04;31.10;99.90
64493;DHT22;50868;24.150;-110.320;2023-08-30T14:28:40;31.40;99.90
64493;DHT22;50868;24.150;-110.320;2023-08-30T14:31:08;31.50;99.90
64493;DHT22;50868;24.150;-110.320;2023-08-30T14:33:37;31.60;99.90
64493;DHT22;50868;24.150;-110.320;2023-08-30T14:36:09;31.60;99.90
64493;DHT22;50868;24.150;-110.320;2023-08-30T14:38:36;31.50;99.90
64493;DHT22;50868;24.150;-110.320;2023-08-30T14:41:04;31.60;99.90
64493;DHT22;50868;24.150;-110.320;2023-08-30T14:43:32;31.70;99.90
64493;DHT22;50868;24.150;-110.320;2023-08-30T14:46:05;31.80;99.90
64493;DHT22;50868;24.150;-110.320;2023-08-30T14:48:33;31.70;99.90
64493;DHT22;50868;24.150;-110.320;2023-08-30T14:51:01;31.70;99.90
64493;DHT22;50868;24.150;-110.320;2023-08-30T14:53:28;31.80;99.90
64493;DHT22;50868;24.150;-110.320;2023-08-30T14:55:56;31.90;99.90
64493;DHT22;50868;24.150;-110.320;2023-08-30T14:58:23;31.90;99.90
64493;DHT22;50868;24.150;-110.320;2023-08-30T15:00:50;32.00;99.90
64493;DHT22;50868;24.150;-110.320;2023-08-30T15:03:17;32.00;99.90
64493;DHT22;50868;24.150;-110.320;2023-08-30T15:05:51;31.60;99.90
64493;DHT22;50868;24.150;-110.320;2023-08-30T15:08:20;31.30;99.90